createdAt,value
2023-04-11T00:00:19.950Z,100589.72
2023-04-11T00:02:47.291Z,100575.84
2023-04-11T00:05:14.383Z,100573.81
2023-04-11T00:07:41.269Z,100563.22
2023-04-11T00:10:09.451Z,100557.28
2023-04-11T00:12:36.458Z,100554.63
2023-04-11T00:15:06.543Z,100544.03
2023-04-11T00:17:33.474Z,100539.97
2023-04-11T00:20:07.301Z,100534.25
2023-04-11T00:22:34.579Z,100533.03
2023-04-11T00:25:01.557Z,100534.03
2023-04-11T00:27:29.016Z,100546.06
2023-04-11T00:29:57.880Z,100536.06
2023-04-11T00:32:26.197Z,100532.19
2023-04-11T00:34:53.088Z,100526.50
2023-04-11T00:37:22.502Z,100517.75
2023-04-11T00:39:54.155Z,100512.06
2023-04-11T00:42:21.258Z,100515.13
2023-04-11T00:44:48.197Z,100510.59
2023-04-11T00:47:15.579Z,100515.13
2023-04-11T00:49:44.100Z,100507.34
2023-04-11T00:52:12.735Z,100506.97
2023-04-11T00:54:40.210Z,100508.63
2023-04-11T00:57:08.452Z,100516.78
2023-04-11T00:59:35.708Z,100510.63
2023-04-11T01:02:02.736Z,100513.50
2023-04-11T01:04:29.952Z,100514.34
2023-04-11T01:07:05.778Z,100514.34
2023-04-11T01:09:35.293Z,100513.94
2023-04-11T01:12:04.651Z,100516.38
2023-04-11T01:14:31.682Z,100519.66
2023-04-11T01:17:02.103Z,100504.53
2023-04-11T01:19:30.709Z,100522.31
2023-04-11T01:22:01.752Z,100514.34
2023-04-11T01:24:30.688Z,100513.91
2023-04-11T01:26:57.976Z,100518.59
2023-04-11T01:29:24.968Z,100533.88
2023-04-11T01:31:52.274Z,100562.00
2023-04-11T01:34:21.379Z,100578.28
2023-04-11T01:36:48.515Z,100599.09
2023-04-11T01:39:15.611Z,100585.25
2023-04-11T01:41:45.697Z,100598.72
2023-04-11T01:44:13.631Z,100597.53
2023-04-11T01:46:40.882Z,100592.22
2023-04-11T01:49:08.203Z,100575.75
2023-04-11T01:51:36.085Z,100575.31
2023-04-11T01:54:03.300Z,100569.22
2023-04-11T01:56:30.229Z,100557.78
2023-04-11T01:58:59.141Z,100546.16
2023-04-11T02:01:26.635Z,100541.47
2023-04-11T02:03:53.769Z,100538.00
2023-04-11T02:06:20.725Z,100529.84
2023-04-11T02:08:47.603Z,100522.91
2023-04-11T02:11:14.503Z,100526.19
2023-04-11T02:13:41.396Z,100518.88
2023-04-11T02:16:17.847Z,100534.75
2023-04-11T02:18:46.291Z,100528.63
2023-04-11T02:21:13.379Z,100545.34
2023-04-11T02:23:40.382Z,100542.47
2023-04-11T02:26:07.332Z,100542.69
2023-04-11T02:28:34.490Z,100542.03
2023-04-11T02:31:02.208Z,100542.88
2023-04-11T02:33:33.459Z,100546.06
2023-04-11T02:36:00.570Z,100547.09
2023-04-11T02:38:27.538Z,100541.59
2023-04-11T02:40:54.441Z,100539.13
2023-04-11T02:43:21.360Z,100541.97
2023-04-11T02:45:48.401Z,100544.00
2023-04-11T02:48:15.826Z,100536.22
2023-04-11T02:50:44.123Z,100538.03
2023-04-11T02:53:11.300Z,100542.66
2023-04-11T02:55:38.183Z,100551.16
2023-04-11T02:58:05.656Z,100545.03
2023-04-11T03:00:32.632Z,100548.47
2023-04-11T03:02:59.554Z,100545.22
2023-04-11T03:05:26.499Z,100542.31
2023-04-11T03:07:54.742Z,100537.69
2023-04-11T03:10:21.669Z,100539.66
2023-04-11T03:12:48.637Z,100541.69
2023-04-11T03:15:17.570Z,100537.59
2023-04-11T03:17:44.503Z,100534.84
2023-04-11T03:20:19.424Z,100531.81
2023-04-11T03:22:46.564Z,100532.06
2023-04-11T03:25:15.073Z,100536.75
2023-04-11T03:27:42.074Z,100525.75
2023-04-11T03:30:10.337Z,100530.41
2023-04-11T03:32:37.337Z,100528.56
2023-04-11T03:35:05.326Z,100537.13
2023-04-11T03:37:32.308Z,100532.59
2023-04-11T03:39:59.141Z,100536.25
2023-04-11T03:42:27.502Z,100533.03
2023-04-11T03:44:54.346Z,100534.06
2023-04-11T03:47:21.224Z,100533.31
2023-04-11T03:49:48.093Z,100541.09
2023-04-11T03:52:17.320Z,100547.25
2023-04-11T03:54:46.386Z,100549.09
2023-04-11T03:57:14.569Z,100557.66
2023-04-11T03:59:42.838Z,100551.38
2023-04-11T04:02:09.993Z,100548.13
2023-04-11T04:04:38.377Z,100536.75
2023-04-11T04:07:05.396Z,100548.00
2023-04-11T04:09:32.273Z,100550.44
2023-04-11T04:11:59.126Z,100546.41
2023-04-11T04:14:26.253Z,100555.34
2023-04-11T04:16:54.463Z,100548.47
2023-04-11T04:19:21.413Z,100543.19
2023-04-11T04:21:50.000Z,100540.53
2023-04-11T04:24:17.374Z,100532.16
2023-04-11T04:26:45.950Z,100538.69
2023-04-11T04:29:12.827Z,100535.41
2023-04-11T04:31:41.017Z,100533.81
2023-04-11T04:34:09.834Z,100536.66
2023-04-11T04:36:46.311Z,100550.91
2023-04-11T04:39:17.419Z,100559.06
2023-04-11T04:41:45.822Z,100557.84
2023-04-11T04:44:13.018Z,100558.47
2023-04-11T04:46:39.965Z,100570.31
2023-04-11T04:49:09.228Z,100557.06
2023-04-11T04:51:36.620Z,100556.66
2023-04-11T04:54:05.132Z,100547.72
2023-04-11T04:56:32.547Z,100552.56
2023-04-11T04:58:59.607Z,100542.59
2023-04-11T05:01:26.631Z,100549.91
2023-04-11T05:03:59.048Z,100546.06
2023-04-11T05:06:31.532Z,100562.31
2023-04-11T05:09:00.995Z,100558.22
2023-04-11T05:11:29.088Z,100570.44
2023-04-11T05:13:56.270Z,100567.59
2023-04-11T05:16:23.323Z,100575.06
2023-04-11T05:18:50.400Z,100567.56
2023-04-11T05:21:17.489Z,100571.41
2023-04-11T05:23:45.894Z,100568.94
2023-04-11T05:26:13.128Z,100569.38
2023-04-11T05:28:42.730Z,100581.75
2023-04-11T05:31:09.966Z,100590.50
2023-04-11T05:33:38.279Z,100583.59
2023-04-11T05:36:06.638Z,100591.94
2023-04-11T05:38:33.663Z,100585.25
2023-04-11T05:41:01.893Z,100582.00
2023-04-11T05:43:28.810Z,100593.00
2023-04-11T05:45:55.882Z,100589.97
2023-04-11T05:48:23.860Z,100595.06
2023-04-11T05:50:51.281Z,100586.72
2023-04-11T05:53:18.441Z,100589.78
2023-04-11T05:55:45.810Z,100587.34
2023-04-11T05:58:14.384Z,100594.09
2023-04-11T06:00:41.400Z,100596.53
2023-04-11T06:03:09.298Z,100611.59
2023-04-11T06:05:36.756Z,100608.34
2023-04-11T06:08:06.632Z,100605.06
2023-04-11T06:10:35.280Z,100593.66
2023-04-11T06:13:06.901Z,100596.47
2023-04-11T06:15:35.360Z,100606.25
2023-04-11T06:18:02.270Z,100605.84
2023-04-11T06:20:29.920Z,100609.34
2023-04-11T06:22:57.115Z,100604.69
2023-04-11T06:25:24.721Z,100608.56
2023-04-11T06:27:51.721Z,100618.16
2023-04-11T06:30:18.743Z,100618.56
2023-04-11T06:32:47.185Z,100618.16
2023-04-11T06:35:14.205Z,100624.91
2023-04-11T06:37:42.308Z,100626.72
2023-04-11T06:40:10.505Z,100623.69
2023-04-11T06:42:37.410Z,100625.34
2023-04-11T06:45:06.291Z,100626.38
2023-04-11T06:47:33.311Z,100619.88
2023-04-11T06:50:01.608Z,100634.56
2023-04-11T06:52:28.532Z,100631.69
2023-04-11T06:54:55.472Z,100641.09
2023-04-11T06:57:22.382Z,100626.44
2023-04-11T06:59:49.236Z,100638.88
2023-04-11T07:02:16.740Z,100637.06
2023-04-11T07:04:43.957Z,100644.41
2023-04-11T07:07:12.434Z,100651.91
2023-04-11T07:09:39.297Z,100653.78
2023-04-11T07:12:06.451Z,100659.84
2023-04-11T07:14:33.385Z,100656.22
2023-04-11T07:17:01.321Z,100660.06
2023-04-11T07:19:28.687Z,100657.03
2023-04-11T07:21:56.885Z,100663.53
2023-04-11T07:24:25.940Z,100661.09
2023-04-11T07:26:54.300Z,100660.09
2023-04-11T07:29:21.397Z,100652.56
2023-04-11T07:31:49.469Z,100663.97
2023-04-11T07:34:16.589Z,100665.97
2023-04-11T07:36:43.504Z,100663.13
2023-04-11T07:39:12.125Z,100666.19
2023-04-11T07:41:40.778Z,100659.81
2023-04-11T07:44:09.353Z,100661.38
2023-04-11T07:46:36.254Z,100659.38
2023-04-11T07:49:03.216Z,100655.66
2023-04-11T07:51:31.116Z,100659.78
2023-04-11T07:53:58.224Z,100671.66
2023-04-11T07:56:25.582Z,100667.56
2023-04-11T07:58:54.227Z,100664.72
2023-04-11T08:01:22.661Z,100661.69
2023-04-11T08:03:49.941Z,100688.03
2023-04-11T08:06:17.002Z,100686.16
2023-04-11T08:08:44.235Z,100689.63
2023-04-11T08:11:11.126Z,100688.41
2023-04-11T08:13:39.456Z,100686.78
2023-04-11T08:16:11.739Z,100687.56
2023-04-11T08:18:42.194Z,100696.75
2023-04-11T08:21:11.430Z,100692.03
2023-04-11T08:23:39.678Z,100688.38
2023-04-11T08:26:07.727Z,100693.22
2023-04-11T08:28:35.765Z,100687.53
2023-04-11T08:31:03.974Z,100689.34
2023-04-11T08:33:33.604Z,100696.72
2023-04-11T08:36:00.539Z,100696.53
2023-04-11T08:38:27.610Z,100691.63
2023-04-11T08:40:55.333Z,100687.53
2023-04-11T08:43:22.357Z,100698.16
2023-04-11T08:45:49.531Z,100702.44
2023-04-11T08:48:16.638Z,100699.97
2023-04-11T08:50:45.123Z,100711.16
2023-04-11T08:53:14.382Z,100707.88
2023-04-11T08:55:48.303Z,100710.94
2023-04-11T08:58:15.462Z,100717.31
2023-04-11T09:00:42.457Z,100716.91
2023-04-11T09:03:12.845Z,100718.72
2023-04-11T09:05:42.551Z,100727.66
2023-04-11T09:08:13.403Z,100732.88
2023-04-11T09:10:45.219Z,100742.28
2023-04-11T09:13:23.574Z,100751.97
2023-04-11T09:16:06.120Z,100756.81
2023-04-11T09:18:36.495Z,100759.72
2023-04-11T09:21:05.947Z,100770.59
2023-04-11T09:23:34.321Z,100778.84
2023-04-11T09:26:01.914Z,100783.22
2023-04-11T09:28:39.632Z,100770.03
2023-04-11T09:31:08.417Z,100780.06
2023-04-11T09:33:35.392Z,100775.88
2023-04-11T09:36:19.702Z,100780.38
2023-04-11T09:38:48.149Z,100785.63
2023-04-11T09:41:16.170Z,100780.44
2023-04-11T09:43:51.503Z,100777.41
2023-04-11T09:46:20.977Z,100778.69
2023-04-11T09:48:49.412Z,100765.59
2023-04-11T09:51:34.426Z,100774.75
2023-04-11T09:54:06.396Z,100799.69
2023-04-11T09:56:37.040Z,100778.06
2023-04-11T09:59:05.207Z,100786.44
2023-04-11T10:01:32.534Z,100787.97
2023-04-11T10:04:01.231Z,100808.59
2023-04-11T10:06:33.855Z,100811.69
2023-04-11T10:09:12.120Z,100809.56
2023-04-11T10:11:42.805Z,100804.47
2023-04-11T10:14:17.266Z,100817.16
2023-04-11T10:17:17.051Z,100808.81
2023-04-11T10:19:46.211Z,100805.72
2023-04-11T10:22:58.913Z,100814.72
2023-04-11T10:25:31.300Z,100824.66
2023-04-11T10:28:04.678Z,100840.16
2023-04-11T10:31:05.035Z,100831.22
2023-04-11T10:33:33.942Z,100844.22
2023-04-11T10:36:04.974Z,100841.25
2023-04-11T10:38:49.803Z,100836.69
2023-04-11T10:41:28.672Z,100837.19
2023-04-11T10:44:18.148Z,100839.81
2023-04-11T10:46:51.625Z,100830.28
2023-04-11T10:49:37.440Z,100821.84
2023-04-11T10:52:21.317Z,100823.75
2023-04-11T10:54:50.530Z,100820.66
2023-04-11T10:57:20.004Z,100814.72
2023-04-11T11:00:00.589Z,100818.66
2023-04-11T11:02:38.779Z,100827.16
2023-04-11T11:05:24.558Z,100835.97
2023-04-11T11:07:53.469Z,100832.06
2023-04-11T11:10:41.966Z,100826.25
2023-04-11T11:13:11.112Z,100822.59
2023-04-11T11:15:39.246Z,100821.97
2023-04-11T11:18:09.883Z,100828.75
2023-04-11T11:20:37.984Z,100837.50
2023-04-11T11:23:06.986Z,100828.47
2023-04-11T11:25:34.487Z,100836.44
2023-04-11T11:28:04.574Z,100835.88
2023-04-11T11:30:33.931Z,100839.19
2023-04-11T11:33:15.939Z,100840.19
2023-04-11T11:35:46.416Z,100836.22
2023-04-11T11:38:13.627Z,100870.19
2023-04-11T11:40:40.790Z,100860.41
2023-04-11T11:43:07.946Z,100887.16
2023-04-11T11:45:36.346Z,100900.88
2023-04-11T11:48:03.598Z,100914.19
2023-04-11T11:50:32.970Z,100902.59
2023-04-11T11:53:15.810Z,100906.03
2023-04-11T11:55:43.501Z,100906.34
2023-04-11T11:58:11.112Z,100905.72
2023-04-11T12:00:40.954Z,100915.63
2023-04-11T12:03:11.933Z,100908.03
2023-04-11T12:05:39.141Z,100905.66
2023-04-11T12:08:07.397Z,100922.19
2023-04-11T12:10:40.906Z,100917.75
2023-04-11T12:13:16.744Z,100905.41
2023-04-11T12:15:50.005Z,100916.88
2023-04-11T12:18:20.128Z,100920.19
2023-04-11T12:20:47.212Z,100930.25
2023-04-11T12:23:14.391Z,100942.84
2023-04-11T12:25:41.740Z,100951.88
2023-04-11T12:28:09.931Z,100967.78
2023-04-11T12:30:37.710Z,100990.13
2023-04-11T12:33:06.262Z,101004.72
2023-04-11T12:35:33.779Z,100994.44
2023-04-11T12:38:00.755Z,100991.25
2023-04-11T12:40:29.580Z,100984.97
2023-04-11T12:42:57.543Z,100991.16
2023-04-11T12:45:25.832Z,100979.03
2023-04-11T12:47:54.291Z,100992.56
2023-04-11T12:50:23.880Z,100998.13
2023-04-11T12:52:51.364Z,101003.75
2023-04-11T12:55:18.639Z,101017.53
2023-04-11T12:57:45.591Z,101043.66
2023-04-11T13:00:14.707Z,101041.84
2023-04-11T13:02:44.528Z,101060.53
2023-04-11T13:05:15.072Z,101060.25
2023-04-11T13:07:46.235Z,101060.16
2023-04-11T13:10:14.386Z,101060.41
2023-04-11T13:12:44.251Z,101067.34
2023-04-11T13:15:14.104Z,101045.66
2023-04-11T13:17:41.210Z,101046.91
2023-04-11T13:20:10.938Z,101043.75
2023-04-11T13:22:38.567Z,101045.13
2023-04-11T13:25:08.304Z,101049.22
2023-04-11T13:27:36.190Z,101039.44
2023-04-11T13:30:04.879Z,101047.84
2023-04-11T13:32:32.127Z,101038.94
2023-04-11T13:34:59.136Z,101045.66
2023-04-11T13:37:26.181Z,101041.78
2023-04-11T13:39:53.316Z,101045.63
2023-04-11T13:42:24.154Z,101040.25
2023-04-11T13:44:51.146Z,101056.31
2023-04-11T13:47:18.058Z,101042.31
2023-04-11T13:49:45.020Z,101039.09
2023-04-11T13:52:12.004Z,101052.16
2023-04-11T13:54:39.093Z,101045.72
2023-04-11T13:57:07.847Z,101040.28
2023-04-11T13:59:36.405Z,101040.50
2023-04-11T14:02:03.547Z,101048.97
2023-04-11T14:04:31.030Z,101041.06
2023-04-11T14:06:58.113Z,101047.81
2023-04-11T14:09:27.991Z,101044.09
2023-04-11T14:11:56.710Z,101050.13
2023-04-11T14:14:23.718Z,101049.22
2023-04-11T14:16:52.128Z,101048.72
2023-04-11T14:19:19.238Z,101054.09
2023-04-11T14:21:46.450Z,101047.28
2023-04-11T14:24:13.374Z,101042.84
2023-04-11T14:26:40.598Z,101049.75
2023-04-11T14:29:07.864Z,101054.63
2023-04-11T14:31:35.894Z,101051.13
2023-04-11T14:34:04.630Z,101049.44
2023-04-11T14:36:31.843Z,101049.38
2023-04-11T14:38:58.955Z,101037.66
2023-04-11T14:41:26.115Z,101054.47
2023-04-11T14:43:52.973Z,101053.50
2023-04-11T14:46:19.963Z,101099.00
2023-04-11T14:48:46.891Z,101096.66
2023-04-11T14:51:15.203Z,101102.63
2023-04-11T14:53:42.811Z,101100.19
2023-04-11T14:56:09.894Z,101085.16
2023-04-11T14:58:36.842Z,101084.81
2023-04-11T15:01:04.101Z,101087.59
2023-04-11T15:03:31.509Z,101097.94
2023-04-11T15:05:59.424Z,101092.50
2023-04-11T15:08:27.844Z,101094.69
2023-04-11T15:10:54.942Z,101079.00
2023-04-11T15:13:22.860Z,101087.50
2023-04-11T15:15:50.026Z,101092.31
2023-04-11T15:18:23.071Z,101096.72
2023-04-11T15:20:50.381Z,101095.69
2023-04-11T15:23:19.480Z,101105.06
2023-04-11T15:25:53.172Z,101117.47
2023-04-11T15:28:20.550Z,101139.97
2023-04-11T15:30:53.236Z,101128.19
2023-04-11T15:33:24.452Z,101124.38
2023-04-11T15:35:56.802Z,101118.16
2023-04-11T15:38:26.393Z,101116.59
2023-04-11T15:40:59.256Z,101100.88
2023-04-11T15:43:27.062Z,101104.56
2023-04-11T15:45:54.787Z,101100.47
2023-04-11T15:48:22.049Z,101090.84
2023-04-11T15:50:49.124Z,101100.69
2023-04-11T15:53:16.323Z,101099.19
2023-04-11T15:55:44.003Z,101097.44
2023-04-11T15:58:12.950Z,101106.03
2023-04-11T16:00:42.151Z,101099.88
2023-04-11T16:03:10.536Z,101100.31
2023-04-11T16:05:41.142Z,101101.13
2023-04-11T16:08:08.571Z,101095.84
2023-04-11T16:10:35.608Z,101099.09
2023-04-11T16:13:03.043Z,101098.09
2023-04-11T16:15:32.275Z,101089.94
2023-04-11T16:17:59.768Z,101097.47
2023-04-11T16:20:26.762Z,101090.34
2023-04-11T16:22:53.915Z,101092.22
2023-04-11T16:25:21.021Z,101090.78
2023-04-11T16:27:51.032Z,101089.72
2023-04-11T16:30:18.367Z,101087.38
2023-04-11T16:32:47.293Z,101085.13
2023-04-11T16:35:14.584Z,101090.03
2023-04-11T16:37:41.993Z,101097.16
2023-04-11T16:40:11.647Z,101102.31
2023-04-11T16:42:39.607Z,101100.50
2023-04-11T16:45:08.943Z,101097.28
2023-04-11T16:47:36.255Z,101098.13
2023-04-11T16:50:05.920Z,101102.28
2023-04-11T16:52:33.020Z,101116.25
2023-04-11T16:54:59.920Z,101101.34
2023-04-11T16:57:27.486Z,101096.22
2023-04-11T16:59:54.597Z,101098.28
2023-04-11T17:02:21.675Z,101097.50
2023-04-11T17:04:48.655Z,101090.91
2023-04-11T17:07:17.668Z,101089.44
2023-04-11T17:09:48.115Z,101085.88
2023-04-11T17:12:15.352Z,101093.16
2023-04-11T17:14:42.304Z,101086.31
2023-04-11T17:17:09.583Z,101090.97
2023-04-11T17:19:36.696Z,101094.00
2023-04-11T17:22:05.761Z,101089.69
2023-04-11T17:24:33.998Z,101095.44
2023-04-11T17:27:01.191Z,101095.25
2023-04-11T17:29:29.004Z,101094.06
2023-04-11T17:31:56.020Z,101104.97
2023-04-11T17:34:22.914Z,101099.09
2023-04-11T17:36:50.013Z,101095.88
2023-04-11T17:39:17.962Z,101092.25
2023-04-11T17:41:47.132Z,101101.31
2023-04-11T17:44:14.045Z,101097.47
2023-04-11T17:46:41.127Z,101091.56
2023-04-11T17:49:08.294Z,101088.97
2023-04-11T17:51:38.853Z,101091.84
2023-04-11T17:54:08.412Z,101093.09
2023-04-11T17:56:35.308Z,101091.28
2023-04-11T17:59:03.579Z,101091.72
2023-04-11T18:01:32.367Z,101093.56
2023-04-11T18:04:01.718Z,101093.53
2023-04-11T18:06:29.530Z,101086.56
2023-04-11T18:08:56.640Z,101086.53
2023-04-11T18:11:23.917Z,101087.16
2023-04-11T18:13:51.124Z,101089.00
2023-04-11T18:16:19.520Z,101092.66
2023-04-11T18:18:47.986Z,101090.81
2023-04-11T18:21:15.961Z,101086.50
2023-04-11T18:23:42.939Z,101095.91
2023-04-11T18:26:09.994Z,101099.34
2023-04-11T18:28:36.991Z,101106.47
2023-04-11T18:31:04.771Z,101104.25
2023-04-11T18:33:33.711Z,101104.03
2023-04-11T18:36:01.565Z,101099.31
2023-04-11T18:38:28.684Z,101102.34
2023-04-11T18:40:56.791Z,101106.00
2023-04-11T18:43:24.741Z,101110.84
2023-04-11T18:45:51.744Z,101115.25
2023-04-11T18:48:18.962Z,101116.41
2023-04-11T18:50:48.607Z,101115.09
2023-04-11T18:53:16.154Z,101120.75
2023-04-11T18:55:43.119Z,101121.09
2023-04-11T18:58:11.926Z,101121.44
2023-04-11T19:00:40.687Z,101127.44
2023-04-11T19:03:15.174Z,101137.94
2023-04-11T19:05:44.012Z,101138.91
2023-04-11T19:08:12.525Z,101133.75
2023-04-11T19:10:39.501Z,101135.31
2023-04-11T19:13:06.842Z,101135.06
2023-04-11T19:15:33.839Z,101138.28
2023-04-11T19:18:01.623Z,101131.03
2023-04-11T19:20:29.467Z,101139.56
2023-04-11T19:22:56.505Z,101139.13
2023-04-11T19:25:24.873Z,101132.56
2023-04-11T19:27:52.018Z,101136.22
2023-04-11T19:30:19.012Z,101132.09
2023-04-11T19:32:47.572Z,101122.34
2023-04-11T19:35:15.142Z,101118.69
2023-04-11T19:37:42.500Z,101100.81
2023-04-11T19:40:11.004Z,101105.28
2023-04-11T19:42:40.197Z,101101.16
2023-04-11T19:45:10.933Z,101098.91
2023-04-11T19:47:39.619Z,101095.00
2023-04-11T19:50:09.532Z,101092.72
2023-04-11T19:52:36.537Z,101095.34
2023-04-11T19:55:03.969Z,101092.09
2023-04-11T19:57:31.223Z,101093.09
2023-04-11T19:59:59.486Z,101092.91
2023-04-11T20:02:26.514Z,101092.09
2023-04-11T20:04:56.073Z,101087.78
2023-04-11T20:07:23.216Z,101083.53
2023-04-11T20:09:51.261Z,101088.72
2023-04-11T20:12:18.367Z,101080.09
2023-04-11T20:14:45.332Z,101084.13
2023-04-11T20:17:13.569Z,101077.31
2023-04-11T20:19:41.648Z,101068.47
2023-04-11T20:22:10.784Z,101070.47
2023-04-11T20:24:37.807Z,101067.66
2023-04-11T20:27:04.702Z,101062.16
2023-04-11T20:29:32.721Z,101068.09
2023-04-11T20:31:59.891Z,101059.97
2023-04-11T20:34:28.185Z,101063.63
2023-04-11T20:36:55.867Z,101064.81
2023-04-11T20:39:23.173Z,101065.84
2023-04-11T20:41:52.221Z,101061.53
2023-04-11T20:44:21.027Z,101055.78
2023-04-11T20:46:47.994Z,101057.63
2023-04-11T20:49:17.606Z,101061.47
2023-04-11T20:51:46.620Z,101053.69
2023-04-11T20:54:13.539Z,101044.31
2023-04-11T20:56:42.694Z,101045.13
2023-04-11T20:59:09.749Z,101041.03
2023-04-11T21:01:36.765Z,101043.88
2023-04-11T21:04:04.285Z,101032.84
2023-04-11T21:06:32.022Z,101034.84
2023-04-11T21:09:00.989Z,101029.97
2023-04-11T21:11:27.907Z,101026.84
2023-04-11T21:13:55.622Z,101020.94
2023-04-11T21:16:23.078Z,101017.19
2023-04-11T21:18:50.103Z,101011.47
2023-04-11T21:21:17.136Z,101014.69
2023-04-11T21:23:44.248Z,101010.94
2023-04-11T21:26:12.630Z,101010.34
2023-04-11T21:28:39.743Z,101010.19
2023-04-11T21:31:07.041Z,101001.72
2023-04-11T21:33:34.082Z,101012.38
2023-04-11T21:36:01.502Z,101002.53
2023-04-11T21:38:28.896Z,101000.25
2023-04-11T21:40:57.920Z,101000.59
2023-04-11T21:43:26.187Z,100993.69
2023-04-11T21:45:53.099Z,100984.13
2023-04-11T21:48:19.966Z,100975.56
2023-04-11T21:50:48.181Z,100986.13
2023-04-11T21:53:15.294Z,100981.84
2023-04-11T21:55:46.084Z,100981.59
2023-04-11T21:58:25.888Z,100974.03
2023-04-11T22:00:57.245Z,100981.03
2023-04-11T22:03:24.774Z,100978.81
2023-04-11T22:05:52.347Z,100981.88
2023-04-11T22:08:22.072Z,100971.03
2023-04-11T22:10:50.481Z,100973.88
2023-04-11T22:13:19.634Z,100970.75
2023-04-11T22:15:58.426Z,100966.78
2023-04-11T22:18:26.884Z,100964.13
2023-04-11T22:20:54.368Z,100961.84
2023-04-11T22:23:21.698Z,100958.22
2023-04-11T22:25:57.684Z,100955.66
2023-04-11T22:28:26.210Z,100951.19
2023-04-11T22:30:53.962Z,100952.72
2023-04-11T22:33:20.952Z,100950.28
2023-04-11T22:35:49.304Z,100949.09
2023-04-11T22:38:16.752Z,100943.81
2023-04-11T22:40:43.740Z,100939.34
2023-04-11T22:43:10.801Z,100933.63
2023-04-11T22:45:37.948Z,100939.25
2023-04-11T22:48:06.154Z,100929.03
2023-04-11T22:50:37.793Z,100923.97
2023-04-11T22:53:09.428Z,100915.59
2023-04-11T22:55:36.656Z,100918.94
2023-04-11T22:58:03.926Z,100913.47
2023-04-11T23:00:31.309Z,100912.72
2023-04-11T23:02:59.516Z,100909.59
2023-04-11T23:05:26.801Z,100906.84
2023-04-11T23:07:53.756Z,100914.28
2023-04-11T23:10:22.000Z,100904.22
2023-04-11T23:12:49.275Z,100900.56
2023-04-11T23:15:17.233Z,100901.34
2023-04-11T23:17:44.810Z,100891.56
2023-04-11T23:20:13.466Z,100885.13
2023-04-11T23:22:43.114Z,100890.03
2023-04-11T23:25:14.983Z,100890.88
2023-04-11T23:27:44.314Z,100876.22
2023-04-11T23:30:14.773Z,100871.63
2023-04-11T23:32:42.718Z,100873.19
2023-04-11T23:35:10.635Z,100868.72
2023-04-11T23:37:37.531Z,100856.53
2023-04-11T23:40:10.432Z,100850.25
2023-04-11T23:42:38.349Z,100852.97
2023-04-11T23:45:08.902Z,100842.59
2023-04-11T23:47:36.186Z,100847.06
2023-04-11T23:50:04.455Z,100832.88
2023-04-11T23:52:31.894Z,100820.34
2023-04-11T23:54:58.883Z,100825.75
2023-04-11T23:57:26.335Z,100824.28
2023-04-11T23:59:53.637Z,100824.09
